createdAt,value
2022-10-18T00:00:10.606Z,28.75
2022-10-18T00:02:56.608Z,29.27
2022-10-18T00:05:42.227Z,28.80
2022-10-18T00:08:27.875Z,29.73
2022-10-18T00:11:13.557Z,30.08
2022-10-18T00:13:59.403Z,29.80
2022-10-18T00:16:45.635Z,31.25
2022-10-18T00:19:30.754Z,30.35
2022-10-18T00:22:17.504Z,31.40
2022-10-18T00:25:03.309Z,32.45
2022-10-18T00:27:48.712Z,33.10
2022-10-18T00:30:34.280Z,34.20
2022-10-18T00:33:19.760Z,36.10
2022-10-18T00:36:05.470Z,33.90
2022-10-18T00:38:51.775Z,32.80
2022-10-18T00:41:38.131Z,31.52
2022-10-18T00:44:26.330Z,35.15
2022-10-18T00:47:14.245Z,31.38
2022-10-18T00:50:03.634Z,32.17
2022-10-18T00:53:02.176Z,34.03
2022-10-18T00:55:48.320Z,30.45
2022-10-18T00:58:34.957Z,35.15
2022-10-18T01:01:23.229Z,32.10
2022-10-18T01:04:12.694Z,32.92
2022-10-18T01:07:19.243Z,32.22
2022-10-18T01:10:30.179Z,31.45
2022-10-18T01:13:34.190Z,33.65
2022-10-18T01:16:59.468Z,35.60
2022-10-18T01:20:07.442Z,36.80
2022-10-18T01:23:07.783Z,37.85
2022-10-18T01:26:13.993Z,34.63
2022-10-18T01:29:27.536Z,36.55
2022-10-18T01:32:16.573Z,38.97
2022-10-18T01:35:07.461Z,38.75
2022-10-18T01:37:56.419Z,39.67
2022-10-18T01:40:43.730Z,40.35
2022-10-18T01:43:31.863Z,35.47
2022-10-18T01:46:22.174Z,31.13
2022-10-18T01:49:07.693Z,26.83
2022-10-18T01:51:53.859Z,26.60
2022-10-18T01:54:43.808Z,26.58
2022-10-18T01:57:40.697Z,27.35
2022-10-18T02:00:42.991Z,26.92
2022-10-18T02:03:40.503Z,27.30
2022-10-18T02:06:31.676Z,30.27
2022-10-18T02:09:23.875Z,31.75
2022-10-18T02:12:12.141Z,35.60
2022-10-18T02:14:58.468Z,37.53
2022-10-18T02:17:48.439Z,34.28
2022-10-18T02:20:36.446Z,36.95
2022-10-18T02:23:25.111Z,36.70
2022-10-18T02:26:10.563Z,33.80
2022-10-18T02:28:56.645Z,36.30
2022-10-18T02:31:45.993Z,36.00
2022-10-18T02:34:42.797Z,39.13
2022-10-18T02:37:35.060Z,38.08
2022-10-18T02:40:26.875Z,42.15
2022-10-18T02:43:14.246Z,44.30
2022-10-18T02:45:59.757Z,46.50
2022-10-18T02:48:45.932Z,43.90
2022-10-18T02:51:31.651Z,50.00
2022-10-18T02:54:18.190Z,46.58
2022-10-18T02:57:03.772Z,48.42
2022-10-18T02:59:49.277Z,45.33
2022-10-18T03:02:35.388Z,51.05
2022-10-18T03:05:20.612Z,49.17
2022-10-18T03:08:08.755Z,47.08
2022-10-18T03:10:54.474Z,48.80
2022-10-18T03:13:40.258Z,45.15
2022-10-18T03:16:25.786Z,45.92
2022-10-18T03:19:11.728Z,48.17
2022-10-18T03:21:57.246Z,45.88
2022-10-18T03:24:42.546Z,47.13
2022-10-18T03:27:28.477Z,49.42
2022-10-18T03:30:14.554Z,45.33
2022-10-18T03:32:59.927Z,49.35
2022-10-18T03:35:45.447Z,48.35
2022-10-18T03:38:31.350Z,53.88
2022-10-18T03:41:16.942Z,53.17
2022-10-18T03:44:02.503Z,53.50
2022-10-18T03:46:47.872Z,54.30
2022-10-18T03:52:18.747Z,56.47
2022-10-18T03:55:04.776Z,57.53
2022-10-18T03:57:50.254Z,56.40
2022-10-18T04:00:35.886Z,54.53
2022-10-18T04:03:26.694Z,54.80
2022-10-18T04:06:11.906Z,56.35
2022-10-18T04:08:57.348Z,56.67
2022-10-18T04:11:43.072Z,56.42
2022-10-18T04:14:28.659Z,54.78
2022-10-18T04:17:13.943Z,55.95
2022-10-18T04:19:59.679Z,58.17
2022-10-18T04:22:46.414Z,54.05
2022-10-18T04:25:31.865Z,51.42
2022-10-18T04:28:18.765Z,47.33
2022-10-18T04:31:03.872Z,46.67
2022-10-18T04:33:49.333Z,48.83
2022-10-18T04:36:37.766Z,49.90
2022-10-18T04:39:23.417Z,51.90
2022-10-18T04:42:08.882Z,48.90
2022-10-18T04:44:54.071Z,48.33
2022-10-18T04:47:39.552Z,47.17
2022-10-18T04:50:24.827Z,45.17
2022-10-18T04:53:10.318Z,41.22
2022-10-18T04:55:55.740Z,40.53
2022-10-18T04:58:42.148Z,46.72
2022-10-18T05:01:27.909Z,45.10
2022-10-18T05:04:13.582Z,43.97
2022-10-18T05:06:58.796Z,41.53
2022-10-18T05:09:44.403Z,40.90
2022-10-18T05:12:30.356Z,39.10
2022-10-18T05:15:15.929Z,39.13
2022-10-18T05:18:01.283Z,47.17
2022-10-18T05:20:47.115Z,45.63
2022-10-18T05:23:32.456Z,40.20
2022-10-18T05:26:18.155Z,45.38
2022-10-18T05:29:03.942Z,42.95
2022-10-18T05:31:50.211Z,36.63
2022-10-18T05:34:36.448Z,37.92
2022-10-18T05:37:26.103Z,45.25
2022-10-18T05:40:13.750Z,41.97
2022-10-18T05:42:59.264Z,37.17
2022-10-18T05:45:49.451Z,45.30
2022-10-18T05:48:35.380Z,32.63
2022-10-18T05:51:20.573Z,38.50
2022-10-18T05:54:19.249Z,32.35
2022-10-18T05:57:05.002Z,36.58
2022-10-18T05:59:50.324Z,31.77
2022-10-18T06:02:36.083Z,32.47
2022-10-18T06:05:21.568Z,29.33
2022-10-18T06:08:10.234Z,31.08
2022-10-18T06:10:56.366Z,38.20
2022-10-18T06:13:46.746Z,34.53
2022-10-18T06:16:32.820Z,32.35
2022-10-18T06:19:18.348Z,31.65
2022-10-18T06:22:03.613Z,29.17
2022-10-18T06:24:51.766Z,30.27
2022-10-18T06:27:38.997Z,29.45
2022-10-18T06:30:24.649Z,28.05
2022-10-18T06:33:11.896Z,26.98
2022-10-18T06:35:59.270Z,31.02
2022-10-18T06:38:45.044Z,26.13
2022-10-18T06:41:30.244Z,28.38
2022-10-18T06:44:22.004Z,30.10
2022-10-18T06:47:08.149Z,24.50
2022-10-18T06:49:53.509Z,26.20
2022-10-18T06:52:38.988Z,23.25
2022-10-18T06:55:24.847Z,21.65
2022-10-18T06:58:10.119Z,21.17
2022-10-18T07:00:59.471Z,21.52
2022-10-18T07:03:46.740Z,19.77
2022-10-18T07:06:32.111Z,22.77
2022-10-18T07:09:17.757Z,24.48
2022-10-18T07:12:03.174Z,22.55
2022-10-18T07:14:48.764Z,18.73
2022-10-18T07:17:34.466Z,20.52
2022-10-18T07:20:23.052Z,20.05
2022-10-18T07:23:19.572Z,17.23
2022-10-18T07:26:21.795Z,17.67
2022-10-18T07:29:09.737Z,18.55
2022-10-18T07:31:58.064Z,18.75
2022-10-18T07:34:43.433Z,17.63
2022-10-18T07:37:30.278Z,16.20
2022-10-18T07:40:18.642Z,16.67
2022-10-18T07:43:04.843Z,16.48
2022-10-18T07:45:57.128Z,15.88
2022-10-18T07:48:42.769Z,11.80
2022-10-18T07:51:29.366Z,12.32
2022-10-18T07:54:15.437Z,12.25
2022-10-18T07:57:01.139Z,11.57
2022-10-18T07:59:48.095Z,8.80
2022-10-18T08:02:33.661Z,10.55
2022-10-18T08:05:18.827Z,9.40
2022-10-18T08:08:07.905Z,8.07
2022-10-18T08:10:53.937Z,7.45
2022-10-18T08:13:39.905Z,7.18
2022-10-18T08:16:29.556Z,7.45
2022-10-18T08:19:14.807Z,6.13
2022-10-18T08:22:00.224Z,5.60
2022-10-18T08:24:49.383Z,6.28
2022-10-18T08:27:35.082Z,7.63
2022-10-18T08:30:20.583Z,5.72
2022-10-18T08:33:08.794Z,5.70
2022-10-18T08:36:03.249Z,5.05
2022-10-18T08:38:51.831Z,5.00
2022-10-18T08:41:39.624Z,5.65
2022-10-18T08:44:40.270Z,5.40
2022-10-18T08:47:37.565Z,3.63
2022-10-18T08:50:36.763Z,4.05
2022-10-18T08:53:49.161Z,3.83
2022-10-18T08:56:34.935Z,4.55
2022-10-18T08:59:24.658Z,3.65
2022-10-18T09:02:34.028Z,3.40
2022-10-18T09:05:31.253Z,3.63
2022-10-18T09:08:45.170Z,2.80
2022-10-18T09:11:43.198Z,2.53
2022-10-18T09:15:01.341Z,2.80
2022-10-18T09:17:58.683Z,2.90
2022-10-18T09:20:56.600Z,2.25
2022-10-18T09:24:05.982Z,2.90
2022-10-18T09:27:13.375Z,3.03
2022-10-18T09:30:03.643Z,2.42
2022-10-18T09:33:07.946Z,3.53
2022-10-18T09:36:03.180Z,2.92
2022-10-18T09:39:02.302Z,2.40
2022-10-18T09:41:55.964Z,2.40
2022-10-18T09:44:46.496Z,2.53
2022-10-18T09:47:50.096Z,2.40
2022-10-18T09:50:56.807Z,2.15
2022-10-18T09:53:50.364Z,2.20
2022-10-18T09:56:49.912Z,2.15
2022-10-18T09:59:51.283Z,2.30
2022-10-18T10:02:37.144Z,2.17
2022-10-18T10:05:22.405Z,2.15
2022-10-18T10:08:07.937Z,1.80
2022-10-18T10:10:53.456Z,2.22
2022-10-18T10:13:38.897Z,2.45
2022-10-18T10:16:25.850Z,2.63
2022-10-18T10:19:20.058Z,2.08
2022-10-18T10:22:14.175Z,2.22
2022-10-18T10:24:59.674Z,2.67
2022-10-18T10:27:46.035Z,2.53
2022-10-18T10:30:37.211Z,2.08
2022-10-18T10:33:37.863Z,2.15
2022-10-18T10:36:23.503Z,2.22
2022-10-18T10:39:19.204Z,2.30
2022-10-18T10:42:13.223Z,2.53
2022-10-18T10:44:58.808Z,1.80
2022-10-18T10:47:48.776Z,2.38
2022-10-18T10:50:53.144Z,1.88
2022-10-18T10:54:17.550Z,1.92
2022-10-18T10:57:12.518Z,2.75
2022-10-18T11:00:01.554Z,1.85
2022-10-18T11:02:59.255Z,1.98
2022-10-18T11:05:57.767Z,1.80
2022-10-18T11:08:43.971Z,2.10
2022-10-18T11:11:36.615Z,2.17
2022-10-18T11:14:30.351Z,1.83
2022-10-18T11:17:39.569Z,1.70
2022-10-18T11:20:40.285Z,2.30
2022-10-18T11:23:32.672Z,2.00
2022-10-18T11:26:36.045Z,1.58
2022-10-18T11:29:43.960Z,2.28
2022-10-18T11:33:07.152Z,1.75
2022-10-18T11:36:04.567Z,1.85
2022-10-18T11:38:57.705Z,2.85
2022-10-18T11:41:52.511Z,1.85
2022-10-18T11:44:43.046Z,2.30
2022-10-18T11:47:57.288Z,1.30
2022-10-18T11:51:01.648Z,1.80
2022-10-18T11:54:08.467Z,1.35
2022-10-18T11:57:12.688Z,1.83
2022-10-18T12:00:45.203Z,1.63
2022-10-18T12:03:51.670Z,1.80
2022-10-18T12:06:40.956Z,1.52
2022-10-18T12:09:32.303Z,1.63
2022-10-18T12:12:23.369Z,1.63
2022-10-18T12:15:19.969Z,2.00
2022-10-18T12:18:19.062Z,1.77
2022-10-18T12:21:06.340Z,1.80
2022-10-18T12:23:59.553Z,1.58
2022-10-18T12:26:48.539Z,1.35
2022-10-18T12:29:50.388Z,1.40
2022-10-18T12:32:37.777Z,1.45
2022-10-18T12:35:25.482Z,1.23
2022-10-18T12:38:26.394Z,1.20
2022-10-18T12:41:26.158Z,1.08
2022-10-18T12:44:33.027Z,1.20
2022-10-18T12:47:24.268Z,1.23
2022-10-18T12:50:34.047Z,1.10
2022-10-18T12:53:27.355Z,1.40
2022-10-18T12:56:28.055Z,1.63
2022-10-18T12:59:17.102Z,1.73
2022-10-18T13:02:20.620Z,2.13
2022-10-18T13:05:53.027Z,1.60
2022-10-18T13:09:01.808Z,1.70
2022-10-18T13:11:47.585Z,1.73
2022-10-18T13:15:07.114Z,2.17
2022-10-18T13:18:19.854Z,1.20
2022-10-18T13:21:42.254Z,1.48
2022-10-18T13:24:43.066Z,1.35
2022-10-18T13:28:05.454Z,1.65
2022-10-18T13:31:13.740Z,1.58
2022-10-18T13:34:27.894Z,1.60
2022-10-18T13:37:24.771Z,1.60
2022-10-18T13:40:24.471Z,1.70
2022-10-18T13:43:52.390Z,1.73
2022-10-18T13:46:38.011Z,1.40
2022-10-18T13:49:59.590Z,1.60
2022-10-18T13:53:07.886Z,1.38
2022-10-18T13:56:32.334Z,1.35
2022-10-18T13:59:50.138Z,1.20
2022-10-18T14:03:00.651Z,1.55
2022-10-18T14:06:00.827Z,1.73
2022-10-18T14:09:25.457Z,1.52
2022-10-18T14:12:41.587Z,1.50
2022-10-18T14:15:35.099Z,1.40
2022-10-18T14:18:32.391Z,1.48
2022-10-18T14:21:28.724Z,1.27
2022-10-18T14:24:25.384Z,1.35
2022-10-18T14:27:20.085Z,1.20
2022-10-18T14:30:20.535Z,1.58
2022-10-18T14:33:05.876Z,0.98
2022-10-18T14:36:14.523Z,1.90
2022-10-18T14:39:04.359Z,1.40
2022-10-18T14:41:57.727Z,1.75
2022-10-18T14:44:55.712Z,2.40
2022-10-18T14:47:41.989Z,1.55
2022-10-18T14:50:30.661Z,2.05
2022-10-18T14:53:21.901Z,2.28
2022-10-18T14:56:11.125Z,2.25
2022-10-18T14:59:09.579Z,2.10
2022-10-18T15:02:14.792Z,2.33
2022-10-18T15:05:16.633Z,2.33
2022-10-18T15:08:02.862Z,2.15
2022-10-18T15:10:51.758Z,2.33
2022-10-18T15:13:50.652Z,1.95
2022-10-18T15:16:38.649Z,1.80
2022-10-18T15:19:32.147Z,1.85
2022-10-18T15:22:31.781Z,1.77
2022-10-18T15:25:32.051Z,2.00
2022-10-18T15:28:32.678Z,2.25
2022-10-18T15:31:38.924Z,1.88
2022-10-18T15:34:27.969Z,1.88
2022-10-18T15:37:33.967Z,2.33
2022-10-18T15:40:40.251Z,1.77
2022-10-18T15:43:28.408Z,1.67
2022-10-18T15:46:31.973Z,1.80
2022-10-18T15:49:45.588Z,1.75
2022-10-18T15:52:38.224Z,1.77
2022-10-18T15:55:31.059Z,1.80
2022-10-18T15:58:21.286Z,2.25
2022-10-18T16:01:19.853Z,1.70
2022-10-18T16:04:09.785Z,2.30
2022-10-18T16:06:56.861Z,1.90
2022-10-18T16:09:42.201Z,2.40
2022-10-18T16:12:27.723Z,1.95
2022-10-18T16:15:13.370Z,2.70
2022-10-18T16:17:58.690Z,2.33
2022-10-18T16:20:44.966Z,2.08
2022-10-18T16:23:30.544Z,2.40
2022-10-18T16:26:17.472Z,1.92
2022-10-18T16:29:04.599Z,2.35
2022-10-18T16:31:51.476Z,1.80
2022-10-18T16:34:42.398Z,2.30
2022-10-18T16:37:27.768Z,2.45
2022-10-18T16:43:04.765Z,2.20
2022-10-18T16:45:54.236Z,1.77
2022-10-18T16:48:40.127Z,2.47
2022-10-18T16:51:32.077Z,2.50
2022-10-18T16:54:17.516Z,2.10
2022-10-18T16:57:02.965Z,2.60
2022-10-18T16:59:48.434Z,2.50
2022-10-18T17:02:34.661Z,2.80
2022-10-18T17:05:20.477Z,3.47
2022-10-18T17:08:06.157Z,2.83
2022-10-18T17:10:56.256Z,2.80
2022-10-18T17:13:43.022Z,2.58
2022-10-18T17:16:34.025Z,2.67
2022-10-18T17:19:19.697Z,2.33
2022-10-18T17:22:05.164Z,2.70
2022-10-18T17:24:50.556Z,2.30
2022-10-18T17:27:39.179Z,3.13
2022-10-18T17:30:24.557Z,2.15
2022-10-18T17:33:15.043Z,3.05
2022-10-18T17:36:03.361Z,3.17
2022-10-18T17:39:01.704Z,2.97
2022-10-18T17:41:47.439Z,2.83
2022-10-18T17:44:33.155Z,3.35
2022-10-18T17:47:24.129Z,3.20
2022-10-18T17:50:09.741Z,2.60
2022-10-18T17:52:55.413Z,3.40
2022-10-18T17:55:40.638Z,3.15
2022-10-18T17:58:26.495Z,3.53
2022-10-18T18:01:17.579Z,3.78
2022-10-18T18:04:03.508Z,3.55
2022-10-18T18:06:49.119Z,3.85
2022-10-18T18:09:34.495Z,3.33
2022-10-18T18:12:20.015Z,3.78
2022-10-18T18:15:05.717Z,3.50
2022-10-18T18:17:58.438Z,3.38
2022-10-18T18:20:54.477Z,3.90
2022-10-18T18:23:41.600Z,3.40
2022-10-18T18:26:27.616Z,5.47
2022-10-18T18:29:13.043Z,3.72
2022-10-18T18:32:03.381Z,3.40
2022-10-18T18:34:49.156Z,3.95
2022-10-18T18:37:34.635Z,3.70
2022-10-18T18:40:19.783Z,4.20
2022-10-18T18:43:22.701Z,4.07
2022-10-18T18:46:09.522Z,4.53
2022-10-18T18:48:56.398Z,3.70
2022-10-18T18:51:42.187Z,4.30
2022-10-18T18:54:29.623Z,5.05
2022-10-18T18:57:15.318Z,4.82
2022-10-18T19:00:00.484Z,5.07
2022-10-18T19:02:46.273Z,5.68
2022-10-18T19:05:32.271Z,7.13
2022-10-18T19:08:17.658Z,7.20
2022-10-18T19:11:06.856Z,6.95
2022-10-18T19:13:54.498Z,7.82
2022-10-18T19:16:50.192Z,6.82
2022-10-18T19:19:38.856Z,6.10
2022-10-18T19:22:24.227Z,7.22
2022-10-18T19:25:09.888Z,6.40
2022-10-18T19:27:55.633Z,6.25
2022-10-18T19:30:40.872Z,6.55
2022-10-18T19:33:41.285Z,6.97
2022-10-18T19:36:32.340Z,7.40
2022-10-18T19:39:20.364Z,7.95
2022-10-18T19:42:14.705Z,7.95
2022-10-18T19:45:03.041Z,8.65
2022-10-18T19:47:48.635Z,8.65
2022-10-18T19:50:35.762Z,9.13
2022-10-18T19:53:21.318Z,10.25
2022-10-18T19:56:08.377Z,9.63
2022-10-18T19:58:54.437Z,10.45
2022-10-18T20:01:39.915Z,11.98
2022-10-18T20:04:25.444Z,12.63
2022-10-18T20:07:10.904Z,11.95
2022-10-18T20:09:56.392Z,12.10
2022-10-18T20:12:42.039Z,11.95
2022-10-18T20:15:27.674Z,14.02
2022-10-18T20:18:13.287Z,13.15
2022-10-18T20:20:59.056Z,12.32
2022-10-18T20:23:45.051Z,11.00
2022-10-18T20:26:30.472Z,12.18
2022-10-18T20:29:15.757Z,12.07
2022-10-18T20:32:29.900Z,11.18
2022-10-18T20:35:16.375Z,11.98
2022-10-18T20:38:01.716Z,11.25
2022-10-18T20:40:50.527Z,12.07
2022-10-18T20:43:36.499Z,13.38
2022-10-18T20:46:22.761Z,11.82
2022-10-18T20:49:10.708Z,12.63
2022-10-18T20:51:55.858Z,12.13
2022-10-18T20:54:42.349Z,13.95
2022-10-18T20:57:32.935Z,14.32
2022-10-18T21:00:22.324Z,14.73
2022-10-18T21:03:07.551Z,15.85
2022-10-18T21:05:53.091Z,15.68
2022-10-18T21:08:38.656Z,15.63
2022-10-18T21:11:24.981Z,16.92
2022-10-18T21:14:19.910Z,18.70
2022-10-18T21:17:05.337Z,18.17
2022-10-18T21:19:53.902Z,16.63
2022-10-18T21:22:39.328Z,15.68
2022-10-18T21:25:24.996Z,15.57
2022-10-18T21:28:10.179Z,15.45
2022-10-18T21:30:57.708Z,18.15
2022-10-18T21:33:44.311Z,17.30
2022-10-18T21:36:35.926Z,15.10
2022-10-18T21:42:09.905Z,16.60
2022-10-18T21:44:55.680Z,17.60
2022-10-18T21:47:41.171Z,17.30
2022-10-18T21:50:26.412Z,17.48
2022-10-18T21:53:11.943Z,16.27
2022-10-18T21:56:03.396Z,17.00
2022-10-18T21:58:49.263Z,16.83
2022-10-18T22:01:36.786Z,15.60
2022-10-18T22:04:24.267Z,14.02
2022-10-18T22:07:12.624Z,14.90
2022-10-18T22:09:58.063Z,16.45
2022-10-18T22:12:43.436Z,15.77
2022-10-18T22:15:29.255Z,15.52
2022-10-18T22:18:16.252Z,14.70
2022-10-18T22:21:05.484Z,13.52
2022-10-18T22:23:53.200Z,14.50
2022-10-18T22:26:40.943Z,14.32
2022-10-18T22:29:26.961Z,14.13
2022-10-18T22:32:12.981Z,15.60
2022-10-18T22:34:58.756Z,15.93
2022-10-18T22:37:44.205Z,17.00
2022-10-18T22:40:29.451Z,17.67
2022-10-18T22:43:14.920Z,18.15
2022-10-18T22:46:06.304Z,18.35
2022-10-18T22:48:52.267Z,21.17
2022-10-18T22:51:40.085Z,21.20
2022-10-18T22:54:28.064Z,22.77
2022-10-18T22:57:13.487Z,25.05
2022-10-18T22:59:58.693Z,26.67
2022-10-18T23:02:44.500Z,26.00
2022-10-18T23:05:29.857Z,28.98
2022-10-18T23:08:15.299Z,30.88
2022-10-18T23:11:00.784Z,32.13
2022-10-18T23:13:46.472Z,33.30
2022-10-18T23:16:35.107Z,33.83
2022-10-18T23:19:20.322Z,38.33
2022-10-18T23:22:06.068Z,38.28
2022-10-18T23:24:53.600Z,40.38
2022-10-18T23:27:40.074Z,41.17
2022-10-18T23:30:25.628Z,43.55
2022-10-18T23:33:11.165Z,44.75
2022-10-18T23:35:58.675Z,45.55
2022-10-18T23:38:46.351Z,48.88
2022-10-18T23:41:31.729Z,47.05
2022-10-18T23:44:17.187Z,50.13
2022-10-18T23:47:02.807Z,49.28
2022-10-18T23:49:48.247Z,48.00
2022-10-18T23:52:33.737Z,50.53
2022-10-18T23:55:19.321Z,50.75
2022-10-18T23:58:04.731Z,51.45
